createdAt,value
2018-11-01T00:02:18.097Z,10.89
2018-11-01T00:04:45.522Z,10.89
2018-11-01T00:07:13.531Z,10.87
2018-11-01T00:09:41.684Z,10.82
2018-11-01T00:12:09.163Z,10.76
2018-11-01T00:14:36.912Z,10.71
2018-11-01T00:17:04.380Z,10.67
2018-11-01T00:19:32.439Z,10.60
2018-11-01T00:22:01.199Z,10.55
2018-11-01T00:24:28.746Z,10.47
2018-11-01T00:26:56.151Z,10.43
2018-11-01T00:29:25.060Z,10.40
2018-11-01T00:31:52.557Z,10.37
2018-11-01T00:34:20.200Z,10.33
2018-11-01T00:36:47.608Z,10.27
2018-11-01T00:39:15.376Z,10.22
2018-11-01T00:41:42.800Z,10.16
2018-11-01T00:44:10.712Z,10.11
2018-11-01T00:46:38.567Z,10.07
2018-11-01T00:49:06.816Z,10.02
2018-11-01T00:51:35.226Z,9.97
2018-11-01T00:54:02.988Z,9.96
2018-11-01T00:56:30.531Z,9.93
2018-11-01T00:58:59.011Z,9.94
2018-11-01T01:01:26.427Z,9.96
2018-11-01T01:03:54.259Z,9.96
2018-11-01T01:06:21.728Z,9.96
2018-11-01T01:08:49.155Z,9.94
2018-11-01T01:11:17.042Z,9.90
2018-11-01T01:13:44.961Z,9.86
2018-11-01T01:16:12.367Z,9.83
2018-11-01T01:18:40.238Z,9.82
2018-11-01T01:21:08.289Z,9.82
2018-11-01T01:23:35.728Z,9.83
2018-11-01T01:26:03.616Z,9.84
2018-11-01T01:28:34.685Z,9.85
2018-11-01T01:31:03.256Z,9.85
2018-11-01T01:33:30.660Z,9.81
2018-11-01T01:35:58.559Z,9.78
2018-11-01T01:38:29.444Z,9.76
2018-11-01T01:40:56.853Z,9.77
2018-11-01T01:43:25.451Z,9.78
2018-11-01T01:45:52.868Z,9.81
2018-11-01T01:48:20.279Z,9.82
2018-11-01T01:50:48.093Z,9.84
2018-11-01T01:53:15.463Z,9.86
2018-11-01T01:55:42.880Z,9.86
2018-11-01T01:58:10.288Z,9.84
2018-11-01T02:00:37.704Z,9.79
2018-11-01T02:03:05.103Z,9.75
2018-11-01T02:05:32.951Z,9.70
2018-11-01T02:08:00.390Z,9.64
2018-11-01T02:10:29.368Z,9.59
2018-11-01T02:13:00.201Z,9.52
2018-11-01T02:15:27.953Z,9.44
2018-11-01T02:17:55.362Z,9.35
2018-11-01T02:20:22.803Z,9.27
2018-11-01T02:22:50.234Z,9.21
2018-11-01T02:25:17.951Z,9.13
2018-11-01T02:27:50.492Z,9.07
2018-11-01T02:30:18.888Z,9.00
2018-11-01T02:32:46.604Z,8.92
2018-11-01T02:35:15.468Z,8.84
2018-11-01T02:37:44.261Z,8.76
2018-11-01T02:40:12.327Z,8.73
2018-11-01T02:42:40.636Z,8.73
2018-11-01T02:45:08.053Z,8.70
2018-11-01T02:47:35.991Z,8.64
2018-11-01T02:50:03.535Z,8.58
2018-11-01T02:52:31.242Z,8.50
2018-11-01T02:54:59.262Z,8.43
2018-11-01T02:57:33.104Z,8.36
2018-11-01T03:00:00.536Z,8.29
2018-11-01T03:02:27.992Z,8.21
2018-11-01T03:04:55.415Z,8.14
2018-11-01T03:07:23.225Z,8.07
2018-11-01T03:09:50.673Z,8.00
2018-11-01T03:12:18.121Z,7.99
2018-11-01T03:14:45.927Z,7.96
2018-11-01T03:17:13.437Z,7.93
2018-11-01T03:19:40.788Z,7.90
2018-11-01T03:22:08.228Z,7.86
2018-11-01T03:24:35.988Z,7.86
2018-11-01T03:27:03.444Z,7.84
2018-11-01T03:29:30.878Z,7.80
2018-11-01T03:31:58.337Z,7.76
2018-11-01T03:34:25.937Z,7.73
2018-11-01T03:36:53.360Z,7.71
2018-11-01T03:39:21.550Z,7.67
2018-11-01T03:41:54.088Z,7.62
2018-11-01T03:44:22.134Z,7.56
2018-11-01T03:46:49.546Z,7.52
2018-11-01T03:49:16.971Z,7.48
2018-11-01T03:51:44.799Z,7.45
2018-11-01T03:54:12.214Z,7.46
2018-11-01T03:56:39.638Z,7.49
2018-11-01T03:59:07.522Z,7.49
2018-11-01T04:01:34.985Z,7.49
2018-11-01T04:04:02.421Z,7.48
2018-11-01T04:09:08.405Z,7.50
2018-11-01T04:11:35.840Z,7.50
2018-11-01T04:14:03.829Z,7.52
2018-11-01T04:16:31.252Z,7.51
2018-11-01T04:18:58.708Z,7.55
2018-11-01T04:21:26.151Z,7.57
2018-11-01T04:23:53.968Z,7.57
2018-11-01T04:26:21.405Z,7.52
2018-11-01T04:28:48.832Z,7.45
2018-11-01T04:31:16.411Z,7.35
2018-11-01T04:33:44.351Z,7.27
2018-11-01T04:36:11.746Z,7.19
2018-11-01T04:38:39.177Z,7.09
2018-11-01T04:41:06.583Z,7.01
2018-11-01T04:43:34.439Z,6.94
2018-11-01T04:46:01.905Z,6.88
2018-11-01T04:48:29.325Z,6.84
2018-11-01T04:50:56.754Z,6.78
2018-11-01T04:53:24.482Z,6.73
2018-11-01T04:55:51.945Z,6.71
2018-11-01T04:58:19.368Z,6.68
2018-11-01T05:00:47.281Z,6.60
2018-11-01T05:03:14.700Z,6.54
2018-11-01T05:05:43.148Z,6.50
2018-11-01T05:08:10.588Z,6.46
2018-11-01T05:10:38.528Z,6.42
2018-11-01T05:13:05.943Z,6.37
2018-11-01T05:15:33.367Z,6.33
2018-11-01T05:18:01.249Z,6.28
2018-11-01T05:20:29.207Z,6.28
2018-11-01T05:22:56.672Z,6.30
2018-11-01T05:25:24.088Z,6.36
2018-11-01T05:27:51.988Z,6.39
2018-11-01T05:30:19.399Z,6.41
2018-11-01T05:32:46.822Z,6.42
2018-11-01T05:35:15.372Z,6.44
2018-11-01T05:37:42.820Z,6.39
2018-11-01T05:40:11.035Z,6.34
2018-11-01T05:42:38.505Z,6.32
2018-11-01T05:45:06.404Z,6.30
2018-11-01T05:47:33.859Z,6.28
2018-11-01T05:50:01.489Z,6.25
2018-11-01T05:52:28.916Z,6.20
2018-11-01T05:54:56.653Z,6.12
2018-11-01T05:57:24.092Z,6.00
2018-11-01T05:59:51.590Z,5.91
2018-11-01T06:02:22.451Z,5.83
2018-11-01T06:04:50.253Z,5.75
2018-11-01T06:07:20.599Z,5.68
2018-11-01T06:09:48.048Z,5.60
2018-11-01T06:12:15.858Z,5.49
2018-11-01T06:14:43.277Z,5.41
2018-11-01T06:17:10.713Z,5.37
2018-11-01T06:19:43.115Z,5.34
2018-11-01T06:22:10.991Z,5.39
2018-11-01T06:24:38.398Z,5.43
2018-11-01T06:27:05.816Z,5.52
2018-11-01T06:29:33.544Z,5.59
2018-11-01T06:32:00.967Z,5.66
2018-11-01T06:34:46.345Z,5.70
2018-11-01T06:37:13.824Z,5.72
2018-11-01T06:39:41.796Z,5.72
2018-11-01T06:42:09.211Z,5.69
2018-11-01T06:44:36.635Z,5.65
2018-11-01T06:49:52.515Z,5.67
2018-11-01T06:52:19.990Z,5.72
2018-11-01T06:54:47.421Z,5.82
2018-11-01T06:57:15.288Z,5.93
2018-11-01T06:59:42.736Z,6.02
2018-11-01T07:02:10.191Z,6.11
2018-11-01T07:04:38.289Z,6.23
2018-11-01T07:07:05.705Z,6.40
2018-11-01T07:09:33.104Z,6.52
2018-11-01T07:12:02.045Z,6.63
2018-11-01T07:14:29.464Z,6.75
2018-11-01T07:16:56.931Z,6.88
2018-11-01T07:19:24.684Z,6.97
2018-11-01T07:21:52.871Z,7.06
2018-11-01T07:24:20.289Z,7.16
2018-11-01T07:26:49.229Z,7.24
2018-11-01T07:29:16.657Z,7.28
2018-11-01T07:31:44.324Z,7.33
2018-11-01T07:34:12.074Z,7.38
2018-11-01T07:36:39.484Z,7.42
2018-11-01T07:39:06.903Z,7.46
2018-11-01T07:41:35.637Z,7.48
2018-11-01T07:44:04.222Z,7.47
2018-11-01T07:46:32.276Z,7.43
2018-11-01T07:49:01.192Z,7.40
2018-11-01T07:51:28.635Z,7.41
2018-11-01T07:53:56.051Z,7.46
2018-11-01T07:56:23.477Z,7.48
2018-11-01T07:58:51.413Z,7.56
2018-11-01T08:01:21.637Z,7.62
2018-11-01T08:03:51.485Z,7.68
2018-11-01T08:06:19.313Z,7.75
2018-11-01T08:08:46.736Z,7.84
2018-11-01T08:11:14.152Z,7.94
2018-11-01T08:13:43.681Z,8.05
2018-11-01T08:16:11.136Z,8.16
2018-11-01T08:18:38.656Z,8.26
2018-11-01T08:21:06.607Z,8.37
2018-11-01T08:23:35.066Z,8.50
2018-11-01T08:26:02.500Z,8.61
2018-11-01T08:28:30.256Z,8.70
2018-11-01T08:30:57.703Z,8.76
2018-11-01T08:33:25.646Z,8.82
2018-11-01T08:35:53.456Z,8.87
2018-11-01T08:38:21.866Z,8.94
2018-11-01T08:40:49.343Z,8.99
2018-11-01T08:43:17.114Z,9.01
2018-11-01T08:45:44.776Z,9.00
2018-11-01T08:48:12.485Z,8.94
2018-11-01T08:50:43.976Z,8.87
2018-11-01T08:53:11.407Z,8.86
2018-11-01T08:55:38.827Z,8.84
2018-11-01T08:58:07.393Z,8.82
2018-11-01T09:00:37.296Z,8.82
2018-11-01T09:03:04.748Z,8.82
2018-11-01T09:05:33.296Z,8.83
2018-11-01T09:08:01.441Z,8.82
2018-11-01T09:10:28.963Z,8.82
2018-11-01T09:12:56.511Z,8.84
2018-11-01T09:15:24.235Z,8.88
2018-11-01T09:17:51.752Z,8.94
2018-11-01T09:20:19.204Z,8.99
2018-11-01T09:22:47.456Z,9.04
2018-11-01T09:25:15.484Z,9.08
2018-11-01T09:27:42.912Z,9.13
2018-11-01T09:30:11.270Z,9.17
2018-11-01T09:32:39.045Z,9.24
2018-11-01T09:35:06.469Z,9.32
2018-11-01T09:37:36.063Z,9.43
2018-11-01T09:40:04.534Z,9.53
2018-11-01T09:42:34.010Z,9.64
2018-11-01T09:45:02.981Z,9.73
2018-11-01T09:47:30.829Z,9.82
2018-11-01T09:49:57.892Z,9.91
2018-11-01T09:52:26.806Z,9.99
2018-11-01T09:54:54.224Z,10.05
2018-11-01T09:57:21.664Z,10.12
2018-11-01T09:59:49.505Z,10.18
2018-11-01T10:02:17.587Z,10.25
2018-11-01T10:04:45.064Z,10.29
2018-11-01T10:07:13.641Z,10.35
2018-11-01T10:09:41.101Z,10.39
2018-11-01T10:12:08.532Z,10.41
2018-11-01T10:14:36.304Z,10.46
2018-11-01T10:17:03.978Z,10.49
2018-11-01T10:19:33.411Z,10.52
2018-11-01T10:22:01.264Z,10.56
2018-11-01T10:24:28.633Z,10.60
2018-11-01T10:26:57.680Z,10.63
2018-11-01T10:29:26.344Z,10.66
2018-11-01T10:31:55.555Z,10.70
2018-11-01T10:34:23.852Z,10.74
2018-11-01T10:36:52.552Z,10.77
2018-11-01T10:39:19.984Z,10.80
2018-11-01T10:41:47.417Z,10.82
2018-11-01T10:44:19.745Z,10.82
2018-11-01T10:46:47.170Z,10.85
2018-11-01T10:49:14.676Z,10.87
2018-11-01T10:51:43.535Z,10.89
2018-11-01T10:54:11.027Z,10.91
2018-11-01T10:56:38.452Z,10.92
2018-11-01T10:59:06.301Z,10.96
2018-11-01T11:01:38.184Z,11.00
2018-11-01T11:04:05.650Z,11.05
2018-11-01T11:06:33.428Z,11.10
2018-11-01T11:09:00.908Z,11.14
2018-11-01T11:11:29.314Z,11.17
2018-11-01T11:13:58.061Z,11.21
2018-11-01T11:16:25.661Z,11.25
2018-11-01T11:18:53.126Z,11.27
2018-11-01T11:21:21.144Z,11.28
2018-11-01T11:23:48.644Z,11.31
2018-11-01T11:26:16.159Z,11.33
2018-11-01T11:28:44.541Z,11.36
2018-11-01T11:31:12.283Z,11.39
2018-11-01T11:33:40.664Z,11.43
2018-11-01T11:36:08.456Z,11.45
2018-11-01T11:38:35.873Z,11.49
2018-11-01T11:41:03.944Z,11.51
2018-11-01T11:43:32.732Z,11.54
2018-11-01T11:46:00.202Z,11.56
2018-11-01T11:48:27.626Z,11.57
2018-11-01T11:50:55.407Z,11.59
2018-11-01T11:53:23.252Z,11.60
2018-11-01T11:55:51.353Z,11.62
2018-11-01T11:58:19.209Z,11.64
2018-11-01T12:00:47.592Z,11.65
2018-11-01T12:03:16.536Z,11.65
2018-11-01T12:05:44.384Z,11.64
2018-11-01T12:08:11.827Z,11.66
2018-11-01T12:10:40.306Z,11.68
2018-11-01T12:13:09.071Z,11.70
2018-11-01T12:15:36.721Z,11.74
2018-11-01T12:18:06.070Z,11.77
2018-11-01T12:20:38.496Z,11.79
2018-11-01T12:23:07.648Z,11.81
2018-11-01T12:25:35.100Z,11.83
2018-11-01T12:28:02.943Z,11.84
2018-11-01T12:30:30.393Z,11.86
2018-11-01T12:32:59.252Z,11.85
2018-11-01T12:35:27.185Z,11.85
2018-11-01T12:37:54.594Z,11.83
2018-11-01T12:40:23.252Z,11.82
2018-11-01T12:42:51.133Z,11.81
2018-11-01T12:45:20.417Z,11.77
2018-11-01T12:47:48.700Z,11.75
2018-11-01T12:50:17.420Z,11.74
2018-11-01T12:52:46.455Z,11.72
2018-11-01T12:55:13.879Z,11.68
2018-11-01T12:57:43.566Z,11.68
2018-11-01T13:00:12.414Z,11.65
2018-11-01T13:02:39.925Z,11.65
2018-11-01T13:05:10.044Z,11.64
2018-11-01T13:07:37.490Z,11.63
2018-11-01T13:10:04.921Z,11.63
2018-11-01T13:12:33.660Z,11.64
2018-11-01T13:15:02.077Z,11.66
2018-11-01T13:17:30.513Z,11.69
2018-11-01T13:19:58.367Z,11.72
2018-11-01T13:22:25.802Z,11.74
2018-11-01T13:24:55.131Z,11.78
2018-11-01T13:27:23.004Z,11.79
2018-11-01T13:29:51.353Z,11.79
2018-11-01T13:32:18.777Z,11.77
2018-11-01T13:34:47.246Z,11.77
2018-11-01T13:37:14.704Z,11.75
2018-11-01T13:39:42.851Z,11.76
2018-11-01T13:42:11.165Z,11.77
2018-11-01T13:44:40.391Z,11.78
2018-11-01T13:47:07.920Z,11.80
2018-11-01T13:49:35.619Z,11.81
2018-11-01T13:52:07.337Z,11.82
2018-11-01T13:54:35.484Z,11.81
2018-11-01T13:57:03.671Z,11.80
2018-11-01T13:59:32.325Z,11.79
2018-11-01T14:02:00.576Z,11.75
2018-11-01T14:04:28.411Z,11.72
2018-11-01T14:06:55.879Z,11.66
2018-11-01T14:09:23.410Z,11.64
2018-11-01T14:11:51.337Z,11.61
2018-11-01T14:14:19.279Z,11.56
2018-11-01T14:16:47.392Z,11.53
2018-11-01T14:19:15.237Z,11.50
2018-11-01T14:21:42.656Z,11.49
2018-11-01T14:24:10.115Z,11.46
2018-11-01T14:26:37.988Z,11.45
2018-11-01T14:29:05.420Z,11.43
2018-11-01T14:31:32.859Z,11.42
2018-11-01T14:34:01.410Z,11.40
2018-11-01T14:36:28.849Z,11.38
2018-11-01T14:38:57.216Z,11.37
2018-11-01T14:41:26.107Z,11.36
2018-11-01T14:43:53.609Z,11.33
2018-11-01T14:46:21.103Z,11.31
2018-11-01T14:48:49.790Z,11.29
2018-11-01T14:51:17.270Z,11.28
2018-11-01T14:53:44.870Z,11.25
2018-11-01T14:56:13.364Z,11.21
2018-11-01T14:58:41.355Z,11.16
2018-11-01T15:01:08.022Z,11.10
2018-11-01T15:03:35.941Z,11.08
2018-11-01T15:06:03.517Z,11.06
2018-11-01T15:08:31.954Z,11.05
2018-11-01T15:11:02.052Z,11.04
2018-11-01T15:13:29.481Z,11.01
2018-11-01T15:15:56.921Z,10.99
2018-11-01T15:18:24.763Z,10.94
2018-11-01T15:20:52.218Z,10.89
2018-11-01T15:23:19.742Z,10.82
2018-11-01T15:25:47.539Z,10.71
2018-11-01T15:28:17.627Z,10.58
2018-11-01T15:30:45.101Z,10.46
2018-11-01T15:33:14.020Z,10.38
2018-11-01T15:35:41.407Z,10.30
2018-11-01T15:38:08.869Z,10.22
2018-11-01T15:40:37.367Z,10.14
2018-11-01T15:43:08.576Z,10.09
2018-11-01T15:45:37.561Z,10.04
2018-11-01T15:48:05.314Z,9.97
2018-11-01T15:50:33.518Z,9.93
2018-11-01T15:53:01.501Z,9.89
2018-11-01T15:55:29.298Z,9.85
2018-11-01T15:57:56.847Z,9.80
2018-11-01T16:00:25.922Z,9.78
2018-11-01T16:02:53.375Z,9.73
2018-11-01T16:05:21.732Z,9.69
2018-11-01T16:07:50.701Z,9.67
2018-11-01T16:10:18.579Z,9.64
2018-11-01T16:12:50.530Z,9.63
2018-11-01T16:15:18.462Z,9.61
2018-11-01T16:17:45.959Z,9.59
2018-11-01T16:20:13.479Z,9.58
2018-11-01T16:22:41.701Z,9.56
2018-11-01T16:25:09.228Z,9.55
2018-11-01T16:27:38.948Z,9.53
2018-11-01T16:30:06.816Z,9.53
2018-11-01T16:32:34.513Z,9.56
2018-11-01T16:35:02.046Z,9.56
2018-11-01T16:37:30.010Z,9.56
2018-11-01T16:39:57.434Z,9.59
2018-11-01T16:42:25.957Z,9.58
2018-11-01T16:44:53.847Z,9.61
2018-11-01T16:47:21.502Z,9.62
2018-11-01T16:49:51.560Z,9.63
2018-11-01T16:52:20.095Z,9.66
2018-11-01T16:54:47.569Z,9.67
2018-11-01T16:57:15.933Z,9.70
2018-11-01T16:59:44.774Z,9.71
2018-11-01T17:02:13.242Z,9.72
2018-11-01T17:04:40.688Z,9.72
2018-11-01T17:07:10.214Z,9.73
2018-11-01T17:09:38.338Z,9.74
2018-11-01T17:12:07.225Z,9.73
2018-11-01T17:14:36.260Z,9.73
2018-11-01T17:17:05.180Z,9.74
2018-11-01T17:19:33.412Z,9.74
2018-11-01T17:22:03.376Z,9.74
2018-11-01T17:24:30.872Z,9.73
2018-11-01T17:26:58.413Z,9.73
2018-11-01T17:29:26.334Z,9.71
2018-11-01T17:31:54.116Z,9.70
2018-11-01T17:34:22.569Z,9.69
2018-11-01T17:36:50.675Z,9.67
2018-11-01T17:39:19.340Z,9.65
2018-11-01T17:41:46.894Z,9.62
2018-11-01T17:44:15.339Z,9.58
2018-11-01T17:46:42.835Z,9.56
2018-11-01T17:49:10.934Z,9.53
2018-11-01T17:51:39.454Z,9.52
2018-11-01T17:54:06.966Z,9.52
2018-11-01T17:56:34.433Z,9.52
2018-11-01T17:59:03.127Z,9.52
2018-11-01T18:01:30.676Z,9.52
2018-11-01T18:03:59.787Z,9.52
2018-11-01T18:06:27.543Z,9.54
2018-11-01T18:08:55.868Z,9.58
2018-11-01T18:11:23.254Z,9.59
2018-11-01T18:13:54.520Z,9.62
2018-11-01T18:16:22.011Z,9.63
2018-11-01T18:18:49.471Z,9.66
2018-11-01T18:21:19.248Z,9.67
2018-11-01T18:23:48.500Z,9.67
2018-11-01T18:26:15.928Z,9.68
2018-11-01T18:28:43.884Z,9.70
2018-11-01T18:31:11.320Z,9.71
2018-11-01T18:33:38.783Z,9.71
2018-11-01T18:36:08.661Z,9.72
2018-11-01T18:38:36.160Z,9.74
2018-11-01T18:41:04.197Z,9.73
2018-11-01T18:43:32.157Z,9.74
2018-11-01T18:45:59.585Z,9.75
2018-11-01T18:48:27.915Z,9.75
2018-11-01T18:50:58.467Z,9.76
2018-11-01T18:53:27.083Z,9.75
2018-11-01T18:55:55.269Z,9.75
2018-11-01T18:58:23.183Z,9.75
2018-11-01T19:00:51.320Z,9.77
2018-11-01T19:03:23.860Z,9.79
2018-11-01T19:05:51.730Z,9.82
2018-11-01T19:08:19.216Z,9.87
2018-11-01T19:10:47.929Z,9.90
2018-11-01T19:13:15.783Z,9.93
2018-11-01T19:15:43.387Z,9.94
2018-11-01T19:18:12.418Z,9.95
2018-11-01T19:20:40.319Z,9.93
2018-11-01T19:23:08.291Z,9.90
2018-11-01T19:25:35.715Z,9.89
2018-11-01T19:28:03.685Z,9.88
2018-11-01T19:30:31.012Z,9.92
2018-11-01T19:32:58.457Z,9.96
2018-11-01T19:35:26.390Z,9.98
2018-11-01T19:37:53.825Z,10.01
2018-11-01T19:40:21.448Z,10.02
2018-11-01T19:42:49.306Z,10.02
2018-11-01T19:45:16.776Z,10.02
2018-11-01T19:47:44.271Z,10.02
2018-11-01T19:50:14.396Z,9.99
2018-11-01T19:52:41.980Z,9.96
2018-11-01T19:55:12.041Z,9.92
2018-11-01T19:57:40.461Z,9.90
2018-11-01T20:00:14.160Z,9.90
2018-11-01T20:02:41.747Z,9.87
2018-11-01T20:05:10.172Z,9.87
2018-11-01T20:07:38.263Z,9.83
2018-11-01T20:10:08.847Z,9.80
2018-11-01T20:12:37.424Z,9.77
2018-11-01T20:15:05.288Z,9.77
2018-11-01T20:17:32.740Z,9.78
2018-11-01T20:20:01.242Z,9.77
2018-11-01T20:22:29.946Z,9.75
2018-11-01T20:24:57.376Z,9.75
2018-11-01T20:27:25.331Z,9.74
2018-11-01T20:29:52.796Z,9.76
2018-11-01T20:32:20.357Z,9.80
2018-11-01T20:34:48.212Z,9.86
2018-11-01T20:37:16.747Z,9.98
2018-11-01T20:39:44.225Z,10.08
2018-11-01T20:42:12.024Z,10.17
2018-11-01T20:44:40.593Z,10.25
2018-11-01T20:47:08.060Z,10.34
2018-11-01T20:49:35.921Z,10.40
2018-11-01T20:52:03.408Z,10.46
2018-11-01T20:54:30.841Z,10.55
2018-11-01T20:56:59.226Z,10.62
2018-11-01T20:59:27.504Z,10.68
2018-11-01T21:01:55.766Z,10.73
2018-11-01T21:04:24.280Z,10.76
2018-11-01T21:06:51.833Z,10.81
2018-11-01T21:09:19.288Z,10.87
2018-11-01T21:11:48.279Z,10.93
2018-11-01T21:14:15.578Z,10.97
2018-11-01T21:22:17.652Z,11.08
2018-11-01T21:24:45.397Z,11.16
2018-11-01T21:27:14.513Z,11.20
2018-11-01T21:29:43.117Z,11.23
2018-11-01T21:32:12.793Z,11.24
2018-11-01T21:34:41.616Z,11.26
2018-11-01T21:37:09.227Z,11.26
2018-11-01T21:39:37.195Z,11.27
2018-11-01T21:42:06.354Z,11.29
2018-11-01T21:44:33.804Z,11.29
2018-11-01T21:47:01.709Z,11.31
2018-11-01T21:49:29.193Z,11.30
2018-11-01T21:51:57.735Z,11.29
2018-11-01T21:54:26.670Z,11.27
2018-11-01T21:56:54.330Z,11.25
2018-11-01T21:59:21.988Z,11.25
2018-11-01T22:01:50.703Z,11.25
2018-11-01T22:04:19.194Z,11.25
2018-11-01T22:06:46.673Z,11.27
2018-11-01T22:09:14.440Z,11.26
2018-11-01T22:11:41.928Z,11.24
2018-11-01T22:14:09.876Z,11.21
2018-11-01T22:16:38.515Z,11.17
2018-11-01T22:19:05.970Z,11.15
2018-11-01T22:21:33.406Z,11.11
2018-11-01T22:24:02.264Z,11.11
2018-11-01T22:26:30.337Z,11.14
2018-11-01T22:28:58.444Z,11.16
2018-11-01T22:31:26.387Z,11.18
2018-11-01T22:33:53.843Z,11.19
2018-11-01T22:36:22.904Z,11.21
2018-11-01T22:38:50.377Z,11.25
2018-11-01T22:41:18.166Z,11.27
2018-11-01T22:43:45.901Z,11.27
2018-11-01T22:46:13.385Z,11.28
2018-11-01T22:48:41.275Z,11.30
2018-11-01T22:51:08.715Z,11.33
2018-11-01T22:53:36.241Z,11.29
2018-11-01T22:56:03.666Z,11.23
2018-11-01T22:58:32.597Z,11.20
2018-11-01T23:01:01.374Z,11.18
2018-11-01T23:03:31.932Z,11.18
2018-11-01T23:05:59.695Z,11.14
2018-11-01T23:08:28.737Z,11.13
2018-11-01T23:10:56.173Z,11.12
2018-11-01T23:13:23.936Z,11.14
2018-11-01T23:15:51.393Z,11.17
2018-11-01T23:18:18.840Z,11.19
2018-11-01T23:20:47.640Z,11.20
2018-11-01T23:23:15.644Z,11.20
2018-11-01T23:25:44.122Z,11.21
2018-11-01T23:28:12.207Z,11.20
2018-11-01T23:30:40.503Z,11.21
2018-11-01T23:33:09.910Z,11.22
2018-11-01T23:35:37.309Z,11.24
2018-11-01T23:38:09.825Z,11.26
2018-11-01T23:40:42.698Z,11.32
2018-11-01T23:43:15.129Z,11.34
2018-11-01T23:45:47.568Z,11.36
2018-11-01T23:48:14.289Z,11.39
2018-11-01T23:50:46.746Z,11.41
2018-11-01T23:53:18.350Z,11.41
2018-11-01T23:55:45.809Z,11.43
2018-11-01T23:58:13.553Z,11.44
